createdAt,value
2017-10-14T00:00:00.404Z,0
2017-10-14T00:01:01.140Z,0
2017-10-14T00:02:01.877Z,0
2017-10-14T00:03:02.615Z,0
2017-10-14T00:04:03.421Z,0
2017-10-14T00:05:04.310Z,0
2017-10-14T00:06:05.030Z,0
2017-10-14T00:07:05.736Z,0
2017-10-14T00:08:06.501Z,0
2017-10-14T00:09:07.231Z,0
2017-10-14T00:10:08.020Z,0
2017-10-14T00:11:08.762Z,0
2017-10-14T00:12:09.614Z,0
2017-10-14T00:13:10.403Z,0
2017-10-14T00:14:11.202Z,0
2017-10-14T00:15:11.979Z,0
2017-10-14T00:16:12.728Z,0
2017-10-14T00:17:13.531Z,0
2017-10-14T00:18:14.265Z,0
2017-10-14T00:19:15.074Z,0
2017-10-14T00:20:15.900Z,0
2017-10-14T00:21:16.631Z,0
2017-10-14T00:22:17.430Z,0
2017-10-14T00:23:18.171Z,0
2017-10-14T00:24:18.917Z,0
2017-10-14T00:25:19.591Z,0
2017-10-14T00:26:20.630Z,0
2017-10-14T00:27:21.370Z,0
2017-10-14T00:28:22.102Z,0
2017-10-14T00:29:22.879Z,0
2017-10-14T00:30:23.619Z,0
2017-10-14T00:31:24.711Z,0
2017-10-14T00:32:25.441Z,0
2017-10-14T00:33:26.257Z,0
2017-10-14T00:34:27.072Z,0
2017-10-14T00:35:27.879Z,0
2017-10-14T00:36:28.619Z,0
2017-10-14T00:37:29.361Z,0
2017-10-14T00:38:30.164Z,0
2017-10-14T00:39:30.969Z,0
2017-10-14T00:40:31.701Z,0
2017-10-14T00:41:32.521Z,0
2017-10-14T00:42:33.337Z,0
2017-10-14T00:43:34.069Z,0
2017-10-14T00:44:34.835Z,0
2017-10-14T00:45:35.640Z,0
2017-10-14T00:46:36.379Z,0
2017-10-14T00:47:37.127Z,0
2017-10-14T00:48:37.911Z,0
2017-10-14T00:49:38.741Z,0
2017-10-14T00:50:39.484Z,0
2017-10-14T00:51:40.264Z,0
2017-10-14T00:52:41.008Z,0
2017-10-14T00:53:41.769Z,0
2017-10-14T00:54:42.498Z,0
2017-10-14T00:55:43.232Z,0
2017-10-14T00:56:44.019Z,0
2017-10-14T00:57:44.758Z,0
2017-10-14T00:58:45.494Z,0
2017-10-14T00:59:46.278Z,0
2017-10-14T01:00:47.013Z,0
2017-10-14T01:01:48.094Z,0
2017-10-14T01:02:48.834Z,0
2017-10-14T01:03:49.569Z,0
2017-10-14T01:04:50.314Z,0
2017-10-14T01:05:51.096Z,0
2017-10-14T01:06:51.942Z,0
2017-10-14T01:07:52.659Z,0
2017-10-14T01:08:53.392Z,0
2017-10-14T01:09:54.185Z,0
2017-10-14T01:10:54.989Z,0
2017-10-14T01:11:55.849Z,0
2017-10-14T01:12:56.585Z,0
2017-10-14T01:13:57.369Z,0
2017-10-14T01:14:58.109Z,0
2017-10-14T01:15:58.849Z,0
2017-10-14T01:16:59.578Z,0
2017-10-14T01:18:00.300Z,0
2017-10-14T01:19:01.100Z,0
2017-10-14T01:20:01.829Z,0
2017-10-14T01:21:02.565Z,0
2017-10-14T01:22:03.680Z,0
2017-10-14T01:23:04.415Z,0
2017-10-14T01:24:05.140Z,0
2017-10-14T01:25:05.881Z,0
2017-10-14T01:26:06.689Z,0
2017-10-14T01:27:07.417Z,0
2017-10-14T01:28:08.154Z,0
2017-10-14T01:29:08.953Z,0
2017-10-14T01:30:09.724Z,0
2017-10-14T01:31:10.462Z,0
2017-10-14T01:32:11.351Z,0
2017-10-14T01:33:12.160Z,0
2017-10-14T01:34:12.952Z,0
2017-10-14T01:35:13.692Z,0
2017-10-14T01:36:14.421Z,0
2017-10-14T01:37:15.253Z,0
2017-10-14T01:38:16.086Z,0
2017-10-14T01:39:16.913Z,0
2017-10-14T01:40:17.644Z,0
2017-10-14T01:41:18.452Z,0
2017-10-14T01:42:19.198Z,0
2017-10-14T01:43:19.992Z,0
2017-10-14T01:44:20.737Z,0
2017-10-14T01:45:21.522Z,0
2017-10-14T01:46:22.265Z,0
2017-10-14T01:47:23.061Z,0
2017-10-14T01:48:23.850Z,0
2017-10-14T01:49:24.627Z,0
2017-10-14T01:50:25.419Z,0
2017-10-14T01:51:26.217Z,0
2017-10-14T01:52:26.953Z,0
2017-10-14T01:53:27.732Z,0
2017-10-14T01:54:28.486Z,0
2017-10-14T01:55:29.281Z,0
2017-10-14T01:56:30.014Z,0
2017-10-14T01:57:30.754Z,0
2017-10-14T01:58:31.538Z,0
2017-10-14T01:59:32.343Z,0
2017-10-14T02:00:33.084Z,0
2017-10-14T02:01:33.834Z,0
2017-10-14T02:02:34.563Z,0
2017-10-14T02:03:35.344Z,0
2017-10-14T02:04:36.156Z,0
2017-10-14T02:05:36.928Z,0
2017-10-14T02:06:37.671Z,0
2017-10-14T02:07:38.408Z,0
2017-10-14T02:08:39.189Z,0
2017-10-14T02:09:39.922Z,0
2017-10-14T02:10:40.688Z,0
2017-10-14T02:11:41.420Z,0
2017-10-14T02:12:42.220Z,0
2017-10-14T02:13:43.008Z,0
2017-10-14T02:14:43.805Z,0
2017-10-14T02:15:44.539Z,0
2017-10-14T02:16:45.272Z,0
2017-10-14T02:17:45.998Z,0
2017-10-14T02:18:46.783Z,0
2017-10-14T02:19:47.599Z,0
2017-10-14T02:20:48.384Z,0
2017-10-14T02:21:49.195Z,0
2017-10-14T02:22:49.953Z,0
2017-10-14T02:23:50.725Z,0
2017-10-14T02:24:51.538Z,0
2017-10-14T02:25:52.287Z,0
2017-10-14T02:26:53.021Z,0
2017-10-14T02:27:53.753Z,0
2017-10-14T02:28:54.892Z,0
2017-10-14T02:29:55.621Z,0
2017-10-14T02:30:56.370Z,0
2017-10-14T02:31:57.112Z,0
2017-10-14T02:32:57.909Z,0
2017-10-14T02:33:58.801Z,0
2017-10-14T02:34:59.577Z,0
2017-10-14T02:36:00.347Z,0
2017-10-14T02:37:01.160Z,0
2017-10-14T02:38:01.954Z,0
2017-10-14T02:39:02.781Z,0
2017-10-14T02:40:03.592Z,0
2017-10-14T02:41:04.397Z,0
2017-10-14T02:42:05.186Z,0
2017-10-14T02:43:05.969Z,0
2017-10-14T02:44:06.791Z,0
2017-10-14T02:45:07.519Z,0
2017-10-14T02:46:08.682Z,0
2017-10-14T02:47:09.425Z,0
2017-10-14T02:48:10.207Z,0
2017-10-14T02:49:10.946Z,0
2017-10-14T02:50:11.717Z,0
2017-10-14T02:51:12.451Z,0
2017-10-14T02:52:13.649Z,0
2017-10-14T02:53:14.377Z,0
2017-10-14T02:54:15.108Z,0
2017-10-14T02:55:15.854Z,0
2017-10-14T02:56:16.643Z,0
2017-10-14T02:57:17.422Z,0
2017-10-14T02:58:18.152Z,0
2017-10-14T02:59:18.912Z,0
2017-10-14T03:00:19.610Z,0
2017-10-14T03:01:20.413Z,0
2017-10-14T03:02:21.438Z,0
2017-10-14T03:03:22.224Z,0
2017-10-14T03:04:23.027Z,0
2017-10-14T03:05:23.803Z,0
2017-10-14T03:06:24.613Z,0
2017-10-14T03:07:25.451Z,0
2017-10-14T03:08:26.181Z,0
2017-10-14T03:09:26.986Z,0
2017-10-14T03:10:27.719Z,0
2017-10-14T03:11:28.522Z,0
2017-10-14T03:12:29.361Z,0
2017-10-14T03:13:30.152Z,0
2017-10-14T03:14:30.886Z,0
2017-10-14T03:15:31.687Z,0
2017-10-14T03:16:32.498Z,0
2017-10-14T03:17:33.293Z,0
2017-10-14T03:18:34.066Z,0
2017-10-14T03:19:34.813Z,0
2017-10-14T03:20:35.624Z,0
2017-10-14T03:21:36.395Z,0
2017-10-14T03:22:37.470Z,0
2017-10-14T03:23:38.265Z,0
2017-10-14T03:24:39.012Z,0
2017-10-14T03:25:39.769Z,0
2017-10-14T03:26:40.585Z,0
2017-10-14T03:27:41.370Z,0
2017-10-14T03:28:42.106Z,0
2017-10-14T03:29:42.838Z,0
2017-10-14T03:30:43.627Z,0
2017-10-14T03:31:44.363Z,0
2017-10-14T03:32:45.136Z,0
2017-10-14T03:33:45.946Z,0
2017-10-14T03:34:46.755Z,0
2017-10-14T03:35:47.550Z,0
2017-10-14T03:36:48.279Z,0
2017-10-14T03:37:49.129Z,0
2017-10-14T03:38:49.924Z,0
2017-10-14T03:39:50.732Z,0
2017-10-14T03:40:51.459Z,0
2017-10-14T03:41:52.257Z,0
2017-10-14T03:42:52.997Z,0
2017-10-14T03:43:53.788Z,0
2017-10-14T03:44:54.533Z,0
2017-10-14T03:45:55.648Z,0
2017-10-14T03:46:56.437Z,0
2017-10-14T03:47:57.170Z,0
2017-10-14T03:48:57.959Z,0
2017-10-14T03:49:58.697Z,0
2017-10-14T03:50:59.473Z,0
2017-10-14T03:52:00.199Z,0
2017-10-14T03:53:00.998Z,0
2017-10-14T03:54:01.736Z,0
2017-10-14T03:55:02.542Z,0
2017-10-14T03:56:03.391Z,0
2017-10-14T03:57:04.156Z,0
2017-10-14T03:58:04.949Z,0
2017-10-14T03:59:05.749Z,0
2017-10-14T04:00:06.487Z,0
2017-10-14T04:01:07.207Z,0
2017-10-14T04:02:07.945Z,0
2017-10-14T04:03:08.768Z,0
2017-10-14T04:04:09.502Z,0
2017-10-14T04:05:10.286Z,0
2017-10-14T04:06:11.017Z,0
2017-10-14T04:07:11.753Z,0
2017-10-14T04:08:12.556Z,0
2017-10-14T04:09:13.306Z,0
2017-10-14T04:10:14.111Z,0
2017-10-14T04:11:14.843Z,0
2017-10-14T04:12:15.618Z,0
2017-10-14T04:13:16.400Z,0
2017-10-14T04:14:17.131Z,0
2017-10-14T04:15:17.876Z,0
2017-10-14T04:16:18.668Z,0
2017-10-14T04:17:19.393Z,0
2017-10-14T04:18:20.531Z,0
2017-10-14T04:19:21.334Z,0
2017-10-14T04:20:22.113Z,0
2017-10-14T04:21:22.917Z,0
2017-10-14T04:22:23.718Z,0
2017-10-14T04:23:24.549Z,0
2017-10-14T04:24:25.278Z,0
2017-10-14T04:25:26.056Z,0
2017-10-14T04:26:26.844Z,0
2017-10-14T04:27:27.661Z,0
2017-10-14T04:28:28.397Z,0
2017-10-14T04:29:29.142Z,0
2017-10-14T04:30:29.929Z,0
2017-10-14T04:31:30.672Z,0
2017-10-14T04:32:31.407Z,0
2017-10-14T04:33:32.240Z,0
2017-10-14T04:34:33.051Z,0
2017-10-14T04:35:33.791Z,0
2017-10-14T04:36:34.528Z,0
2017-10-14T04:37:35.284Z,0
2017-10-14T04:38:36.189Z,0
2017-10-14T04:39:36.928Z,0
2017-10-14T04:40:37.670Z,0
2017-10-14T04:41:38.412Z,0
2017-10-14T04:42:39.145Z,0
2017-10-14T04:43:39.929Z,0
2017-10-14T04:44:40.727Z,0
2017-10-14T04:45:41.537Z,0
2017-10-14T04:46:42.261Z,0
2017-10-14T04:47:42.987Z,0
2017-10-14T04:48:44.063Z,0
2017-10-14T04:49:44.814Z,0
2017-10-14T04:50:45.612Z,0
2017-10-14T04:51:46.352Z,0
2017-10-14T04:52:47.082Z,0
2017-10-14T04:53:47.808Z,0
2017-10-14T04:54:48.616Z,0
2017-10-14T04:55:49.343Z,0
2017-10-14T04:56:50.160Z,0
2017-10-14T04:57:50.945Z,0
2017-10-14T04:58:51.729Z,0
2017-10-14T04:59:52.479Z,0
2017-10-14T05:00:53.265Z,0
2017-10-14T05:01:53.989Z,0
2017-10-14T05:02:54.804Z,0
2017-10-14T05:03:55.715Z,0
2017-10-14T05:04:56.473Z,0
2017-10-14T05:05:57.203Z,0
2017-10-14T05:06:58.045Z,0
2017-10-14T05:07:58.834Z,0
2017-10-14T05:08:59.621Z,0
2017-10-14T05:10:00.344Z,0
2017-10-14T05:11:01.162Z,0
2017-10-14T05:12:01.948Z,0
2017-10-14T05:13:02.701Z,0
2017-10-14T05:14:03.857Z,0
2017-10-14T05:15:04.580Z,0
2017-10-14T05:16:05.382Z,4
2017-10-14T05:17:06.110Z,4
2017-10-14T05:18:06.844Z,4
2017-10-14T05:19:08.059Z,4
2017-10-14T05:20:08.865Z,4
2017-10-14T05:21:09.665Z,8
2017-10-14T05:22:10.468Z,8
2017-10-14T05:23:11.212Z,8
2017-10-14T05:24:12.342Z,8
2017-10-14T05:25:13.076Z,12
2017-10-14T05:26:13.824Z,16
2017-10-14T05:27:14.628Z,20
2017-10-14T05:28:15.371Z,20
2017-10-14T05:29:16.206Z,28
2017-10-14T05:30:17.020Z,28
2017-10-14T05:31:17.774Z,36
2017-10-14T05:32:18.501Z,40
2017-10-14T05:33:19.284Z,52
2017-10-14T05:34:20.175Z,60
2017-10-14T05:35:20.986Z,72
2017-10-14T05:36:21.709Z,88
2017-10-14T05:37:22.453Z,104
2017-10-14T05:38:23.263Z,120
2017-10-14T05:39:24.047Z,140
2017-10-14T05:40:24.804Z,160
2017-10-14T05:41:25.538Z,180
2017-10-14T05:42:26.356Z,208
2017-10-14T05:43:27.107Z,232
2017-10-14T05:44:27.979Z,260
2017-10-14T05:45:28.769Z,288
2017-10-14T05:46:29.512Z,312
2017-10-14T05:47:30.239Z,348
2017-10-14T05:48:30.976Z,380
2017-10-14T05:49:31.720Z,408
2017-10-14T05:50:32.507Z,448
2017-10-14T05:51:33.248Z,484
2017-10-14T05:52:33.988Z,528
2017-10-14T05:53:34.731Z,556
2017-10-14T05:54:35.540Z,592
2017-10-14T05:55:36.750Z,628
2017-10-14T05:56:37.548Z,668
2017-10-14T05:57:38.269Z,716
2017-10-14T05:58:39.013Z,772
2017-10-14T05:59:39.764Z,828
2017-10-14T06:00:40.608Z,884
2017-10-14T06:01:41.353Z,924
2017-10-14T06:02:42.079Z,972
2017-10-14T06:03:42.811Z,1008
2017-10-14T06:04:43.542Z,1040
2017-10-14T06:05:44.370Z,1084
2017-10-14T06:06:45.174Z,1128
2017-10-14T06:07:45.993Z,1176
2017-10-14T06:08:46.761Z,1216
2017-10-14T06:09:47.498Z,1260
2017-10-14T06:10:48.629Z,1304
2017-10-14T06:11:49.437Z,1344
2017-10-14T06:12:50.169Z,1392
2017-10-14T06:13:50.913Z,1444
2017-10-14T06:14:51.668Z,1480
2017-10-14T06:15:52.493Z,1500
2017-10-14T06:16:53.233Z,1548
2017-10-14T06:17:53.971Z,1612
2017-10-14T06:18:54.713Z,1668
2017-10-14T06:19:55.533Z,1736
2017-10-14T06:20:56.428Z,1796
2017-10-14T06:21:57.164Z,1804
2017-10-14T06:22:57.954Z,1884
2017-10-14T06:23:58.633Z,1932
2017-10-14T06:24:59.454Z,1964
2017-10-14T06:26:00.630Z,2016
2017-10-14T06:27:01.455Z,2092
2017-10-14T06:28:02.261Z,2180
2017-10-14T06:29:03.053Z,2252
2017-10-14T06:30:03.819Z,2292
2017-10-14T06:31:04.613Z,2320
2017-10-14T06:32:05.432Z,2376
2017-10-14T06:33:06.160Z,2416
2017-10-14T06:34:06.975Z,2456
2017-10-14T06:35:07.771Z,2488
2017-10-14T06:36:08.982Z,2388
2017-10-14T06:37:09.738Z,2444
2017-10-14T06:38:10.542Z,2664
2017-10-14T06:39:11.268Z,2680
2017-10-14T06:40:12.047Z,2644
2017-10-14T06:41:12.912Z,2692
2017-10-14T06:42:13.647Z,2744
2017-10-14T06:43:14.452Z,2880
2017-10-14T06:44:15.262Z,2896
2017-10-14T06:45:16.000Z,2964
2017-10-14T06:46:16.830Z,2988
2017-10-14T06:47:17.654Z,3052
2017-10-14T06:48:18.482Z,3160
2017-10-14T06:49:19.266Z,3264
2017-10-14T06:50:20.039Z,3188
2017-10-14T06:51:20.828Z,3184
2017-10-14T06:52:21.569Z,3280
2017-10-14T06:53:22.309Z,3360
2017-10-14T06:54:23.045Z,3336
2017-10-14T06:55:23.829Z,3160
2017-10-14T06:56:24.668Z,3228
2017-10-14T06:57:25.455Z,3452
2017-10-14T06:58:26.281Z,3620
2017-10-14T06:59:27.033Z,3636
2017-10-14T07:00:27.850Z,3412
2017-10-14T07:01:28.722Z,3456
2017-10-14T07:02:29.533Z,3552
2017-10-14T07:03:30.354Z,3596
2017-10-14T07:04:31.101Z,3748
2017-10-14T07:05:31.839Z,3620
2017-10-14T07:06:32.878Z,3780
2017-10-14T07:07:33.648Z,3668
2017-10-14T07:08:34.388Z,3684
2017-10-14T07:09:35.120Z,3808
2017-10-14T07:10:35.905Z,3824
2017-10-14T07:11:36.738Z,3912
2017-10-14T07:12:37.470Z,3984
2017-10-14T07:13:38.272Z,4200
2017-10-14T07:14:39.092Z,4188
2017-10-14T07:15:39.821Z,4012
2017-10-14T07:16:40.564Z,3844
2017-10-14T07:17:41.302Z,4228
2017-10-14T07:18:42.037Z,4300
2017-10-14T07:19:42.852Z,4560
2017-10-14T07:20:43.580Z,4636
2017-10-14T07:21:44.391Z,4216
2017-10-14T07:22:45.120Z,4272
2017-10-14T07:23:45.862Z,4376
2017-10-14T07:24:46.688Z,4484
2017-10-14T07:25:47.438Z,4376
2017-10-14T07:26:48.188Z,4364
2017-10-14T07:27:48.932Z,4272
2017-10-14T07:28:49.748Z,4324
2017-10-14T07:29:50.488Z,4416
2017-10-14T07:30:51.241Z,4388
2017-10-14T07:31:52.381Z,4332
2017-10-14T07:32:53.201Z,4396
2017-10-14T07:33:53.943Z,4408
2017-10-14T07:34:54.752Z,4336
2017-10-14T07:35:55.504Z,4548
2017-10-14T07:36:56.398Z,4560
2017-10-14T07:37:57.129Z,4552
2017-10-14T07:38:57.862Z,4684
2017-10-14T07:39:58.608Z,4584
2017-10-14T07:40:59.411Z,4700
2017-10-14T07:42:00.140Z,4804
2017-10-14T07:43:00.869Z,4844
2017-10-14T07:44:01.607Z,4724
2017-10-14T07:45:02.344Z,4740
2017-10-14T07:46:03.149Z,4992
2017-10-14T07:47:03.998Z,5152
2017-10-14T07:48:04.728Z,5156
2017-10-14T07:49:05.481Z,5012
2017-10-14T07:50:06.223Z,5068
2017-10-14T07:51:06.967Z,5040
2017-10-14T07:52:07.777Z,5280
2017-10-14T07:53:08.518Z,5356
2017-10-14T07:54:09.261Z,5364
2017-10-14T07:55:09.988Z,5332
2017-10-14T07:56:10.723Z,5420
2017-10-14T07:57:11.453Z,5508
2017-10-14T07:58:12.196Z,5504
2017-10-14T07:59:12.998Z,5536
2017-10-14T08:00:13.742Z,5616
2017-10-14T08:01:14.822Z,5808
2017-10-14T08:02:15.619Z,5740
2017-10-14T08:03:16.424Z,5792
2017-10-14T08:04:17.234Z,5800
2017-10-14T08:05:17.915Z,6092
2017-10-14T08:06:18.812Z,6024
2017-10-14T08:07:19.557Z,6068
2017-10-14T08:08:20.362Z,6128
2017-10-14T08:09:21.098Z,6276
2017-10-14T08:10:21.830Z,6508
2017-10-14T08:11:22.585Z,7348
2017-10-14T08:12:23.666Z,9824
2017-10-14T08:13:24.453Z,11876
2017-10-14T08:14:25.247Z,12336
2017-10-14T08:15:25.972Z,13292
2017-10-14T08:16:26.708Z,14956
2017-10-14T08:17:27.897Z,15776
2017-10-14T08:18:28.652Z,17216
2017-10-14T08:19:29.452Z,18656
2017-10-14T08:20:30.257Z,19200
2017-10-14T08:21:31.046Z,19648
2017-10-14T08:22:31.841Z,21280
2017-10-14T08:23:32.580Z,24768
2017-10-14T08:24:33.322Z,27296
2017-10-14T08:25:34.062Z,25216
2017-10-14T08:26:34.800Z,23008
2017-10-14T08:27:35.692Z,22816
2017-10-14T08:28:36.436Z,25312
2017-10-14T08:29:37.255Z,25376
2017-10-14T08:30:38.063Z,21920
2017-10-14T08:31:38.887Z,18688
2017-10-14T08:32:39.664Z,17248
2017-10-14T08:33:40.390Z,18496
2017-10-14T08:34:41.188Z,18112
2017-10-14T08:35:42.242Z,13312
2017-10-14T08:36:42.987Z,16576
2017-10-14T08:37:43.732Z,23808
2017-10-14T08:38:44.477Z,22048
2017-10-14T08:39:45.273Z,21184
2017-10-14T08:40:46.158Z,22400
2017-10-14T08:41:46.903Z,24416
2017-10-14T08:42:47.642Z,25024
2017-10-14T08:43:48.392Z,24384
2017-10-14T08:44:49.115Z,25056
2017-10-14T08:45:49.900Z,25536
2017-10-14T08:46:50.716Z,25824
2017-10-14T08:47:51.516Z,26624
2017-10-14T08:48:52.345Z,28384
2017-10-14T08:49:53.078Z,28576
2017-10-14T08:50:54.224Z,28032
2017-10-14T08:51:54.969Z,28384
2017-10-14T08:52:55.725Z,28800
2017-10-14T08:53:56.476Z,29952
2017-10-14T08:54:57.250Z,28032
2017-10-14T08:55:58.050Z,27296
2017-10-14T08:56:58.805Z,27584
2017-10-14T08:57:59.541Z,29216
2017-10-14T08:59:00.282Z,29952
2017-10-14T09:00:01.086Z,30144
2017-10-14T09:01:02.001Z,30240
2017-10-14T09:02:02.843Z,30368
2017-10-14T09:03:03.577Z,32512
2017-10-14T09:04:04.323Z,33248
2017-10-14T09:05:05.110Z,32352
2017-10-14T09:06:06.144Z,31104
2017-10-14T09:07:06.894Z,32256
2017-10-14T09:08:07.631Z,30912
2017-10-14T09:09:08.383Z,33568
2017-10-14T09:10:09.122Z,32096
2017-10-14T09:11:10.055Z,34528
2017-10-14T09:12:10.845Z,34656
2017-10-14T09:13:11.584Z,31424
2017-10-14T09:14:12.387Z,32416
2017-10-14T09:15:13.206Z,33056
2017-10-14T09:16:14.111Z,32864
2017-10-14T09:17:14.921Z,33760
2017-10-14T09:18:15.736Z,32704
2017-10-14T09:19:16.477Z,31904
2017-10-14T09:20:17.271Z,32480
2017-10-14T09:21:18.162Z,33120
2017-10-14T09:22:18.961Z,34496
2017-10-14T09:23:19.790Z,35584
2017-10-14T09:24:20.551Z,35040
2017-10-14T09:25:21.280Z,33504
2017-10-14T09:26:22.083Z,31136
2017-10-14T09:27:22.821Z,31360
2017-10-14T09:28:23.554Z,27008
2017-10-14T09:29:24.295Z,35488
2017-10-14T09:30:25.081Z,34912
2017-10-14T09:31:25.941Z,35904
2017-10-14T09:32:26.689Z,32544
2017-10-14T09:33:27.519Z,22624
2017-10-14T09:34:28.255Z,35360
2017-10-14T09:35:29.009Z,33952
2017-10-14T09:36:29.827Z,32768
2017-10-14T09:37:30.580Z,33152
2017-10-14T09:38:31.336Z,35296
2017-10-14T09:39:32.072Z,37920
2017-10-14T09:40:32.889Z,37184
2017-10-14T09:41:34.032Z,32256
2017-10-14T09:42:34.786Z,13348
2017-10-14T09:43:35.591Z,37184
2017-10-14T09:44:36.653Z,36896
2017-10-14T09:45:37.757Z,34912
2017-10-14T09:46:39.680Z,36192
2017-10-14T09:47:41.722Z,36928
2017-10-14T09:48:43.940Z,38720
2017-10-14T09:49:44.781Z,33376
2017-10-14T09:50:45.824Z,37568
2017-10-14T09:51:47.163Z,37536
2017-10-14T09:52:47.946Z,40832
2017-10-14T09:53:48.776Z,40096
2017-10-14T09:54:50.248Z,40672
2017-10-14T09:55:51.142Z,13344
2017-10-14T09:56:52.250Z,32704
2017-10-14T09:57:53.011Z,29184
2017-10-14T09:58:53.817Z,22656
2017-10-14T09:59:54.555Z,20576
2017-10-14T10:00:55.362Z,20544
2017-10-14T10:01:56.152Z,21056
2017-10-14T10:02:56.900Z,23840
2017-10-14T10:03:57.638Z,22080
2017-10-14T10:04:58.370Z,18016
2017-10-14T10:05:59.128Z,16108
2017-10-14T10:06:59.935Z,18272
2017-10-14T10:08:00.731Z,19584
2017-10-14T10:09:01.549Z,10196
2017-10-14T10:10:02.303Z,10948
2017-10-14T10:11:03.033Z,9776
2017-10-14T10:12:03.886Z,10196
2017-10-14T10:13:04.622Z,10808
2017-10-14T10:14:05.405Z,12228
2017-10-14T10:15:06.237Z,13764
2017-10-14T10:16:07.064Z,13460
2017-10-14T10:17:07.918Z,10860
2017-10-14T10:18:08.754Z,11672
2017-10-14T10:19:09.521Z,11868
2017-10-14T10:20:10.277Z,13036
2017-10-14T10:21:11.054Z,11024
2017-10-14T10:22:11.932Z,18944
2017-10-14T10:23:12.680Z,12256
2017-10-14T10:24:13.492Z,12180
2017-10-14T10:25:14.311Z,20352
2017-10-14T10:26:15.059Z,14288
2017-10-14T10:27:15.842Z,16196
2017-10-14T10:28:16.643Z,14744
2017-10-14T10:29:17.470Z,13700
2017-10-14T10:30:18.221Z,19648
2017-10-14T10:31:18.971Z,14556
2017-10-14T10:32:19.752Z,46880
2017-10-14T10:33:20.502Z,17904
2017-10-14T10:34:21.248Z,33152
2017-10-14T10:35:22.047Z,46560
2017-10-14T10:36:22.894Z,44384
2017-10-14T10:37:24.000Z,44608
2017-10-14T10:38:24.810Z,45440
2017-10-14T10:39:25.558Z,46848
2017-10-14T10:40:26.355Z,47840
2017-10-14T10:41:27.114Z,45728
2017-10-14T10:42:27.931Z,45152
2017-10-14T10:43:28.673Z,45280
2017-10-14T10:44:29.413Z,46048
2017-10-14T10:45:30.249Z,42752
2017-10-14T10:46:31.050Z,25120
2017-10-14T10:47:32.141Z,17908
2017-10-14T10:48:32.901Z,23360
2017-10-14T10:49:33.651Z,20256
2017-10-14T10:50:34.452Z,20832
2017-10-14T10:51:35.192Z,13948
2017-10-14T10:52:36.585Z,13484
2017-10-14T10:53:37.261Z,11988
2017-10-14T10:54:37.995Z,10732
2017-10-14T10:55:38.730Z,9996
2017-10-14T10:56:39.471Z,10156
2017-10-14T10:57:40.264Z,9244
2017-10-14T10:58:41.062Z,10488
2017-10-14T10:59:41.796Z,9568
2017-10-14T11:00:42.551Z,9164
2017-10-14T11:01:43.299Z,9756
2017-10-14T11:02:44.390Z,10988
2017-10-14T11:03:45.139Z,11060
2017-10-14T11:04:45.916Z,10836
2017-10-14T11:05:46.656Z,19584
2017-10-14T11:06:47.427Z,13444
2017-10-14T11:07:48.170Z,19936
2017-10-14T11:08:49.052Z,23904
2017-10-14T11:09:49.744Z,7916
2017-10-14T11:10:50.717Z,9996
2017-10-14T11:11:51.432Z,10984
2017-10-14T11:12:52.282Z,12336
2017-10-14T11:13:53.110Z,11912
2017-10-14T11:14:53.847Z,12668
2017-10-14T11:15:54.608Z,9336
2017-10-14T11:16:55.443Z,10072
2017-10-14T11:17:56.386Z,9220
2017-10-14T11:18:57.119Z,9096
2017-10-14T11:19:57.942Z,9004
2017-10-14T11:20:58.682Z,9800
2017-10-14T11:21:59.513Z,9524
2017-10-14T11:23:00.670Z,7632
2017-10-14T11:24:01.407Z,16436
2017-10-14T11:25:02.149Z,14832
2017-10-14T11:26:02.890Z,9028
2017-10-14T11:27:03.630Z,13620
2017-10-14T11:28:04.543Z,11248
2017-10-14T11:29:05.322Z,13084
2017-10-14T11:30:06.066Z,12936
2017-10-14T11:31:06.872Z,14104
2017-10-14T11:32:07.693Z,13984
2017-10-14T11:33:08.496Z,18496
2017-10-14T11:34:09.236Z,12120
2017-10-14T11:35:10.389Z,15204
2017-10-14T11:36:11.138Z,11200
2017-10-14T11:37:11.931Z,12092
2017-10-14T11:38:12.675Z,11668
2017-10-14T11:39:13.430Z,13916
2017-10-14T11:40:14.254Z,15664
2017-10-14T11:41:15.456Z,13208
2017-10-14T11:42:16.196Z,11852
2017-10-14T11:43:16.926Z,11376
2017-10-14T11:44:17.667Z,11828
2017-10-14T11:45:18.471Z,16152
2017-10-14T11:46:19.255Z,13604
2017-10-14T11:47:20.003Z,7336
2017-10-14T11:48:20.816Z,6704
2017-10-14T11:49:21.567Z,6732
2017-10-14T11:50:22.313Z,6936
2017-10-14T11:51:23.240Z,6568
2017-10-14T11:52:23.979Z,6356
2017-10-14T11:53:24.842Z,6464
2017-10-14T11:54:25.586Z,13540
2017-10-14T11:55:26.344Z,9644
2017-10-14T11:56:27.177Z,8748
2017-10-14T11:57:27.990Z,11388
2017-10-14T11:58:28.739Z,13884
2017-10-14T11:59:29.476Z,21376
2017-10-14T12:00:30.223Z,17280
2017-10-14T12:01:31.119Z,21664
2017-10-14T12:02:31.872Z,15224
2017-10-14T12:03:32.668Z,21280
2017-10-14T12:04:33.419Z,17440
2017-10-14T12:05:34.154Z,23648
2017-10-14T12:06:34.946Z,18176
2017-10-14T12:07:35.738Z,11604
2017-10-14T12:08:36.514Z,12000
2017-10-14T12:09:37.255Z,14516
2017-10-14T12:10:38.071Z,14772
2017-10-14T12:11:38.885Z,14736
2017-10-14T12:12:39.619Z,20160
2017-10-14T12:13:40.411Z,14260
2017-10-14T12:14:41.161Z,13820
2017-10-14T12:15:42.019Z,15756
2017-10-14T12:16:42.910Z,15604
2017-10-14T12:17:43.716Z,14512
2017-10-14T12:18:44.522Z,18204
2017-10-14T12:19:45.270Z,22784
2017-10-14T12:20:46.019Z,38176
2017-10-14T12:21:46.863Z,29376
2017-10-14T12:22:47.620Z,39168
2017-10-14T12:23:48.355Z,40032
2017-10-14T12:24:49.096Z,42208
2017-10-14T12:25:49.845Z,44960
2017-10-14T12:26:50.590Z,46336
2017-10-14T12:27:51.329Z,47072
2017-10-14T12:28:52.180Z,38304
2017-10-14T12:29:52.990Z,27424
2017-10-14T12:30:53.726Z,19360
2017-10-14T12:31:54.471Z,15524
2017-10-14T12:32:55.267Z,14440
2017-10-14T12:33:56.129Z,19104
2017-10-14T12:34:56.883Z,20480
2017-10-14T12:35:57.716Z,20864
2017-10-14T12:36:58.510Z,19684
2017-10-14T12:37:59.241Z,17668
2017-10-14T12:39:00.141Z,9616
2017-10-14T12:40:00.864Z,10368
2017-10-14T12:41:01.620Z,15704
2017-10-14T12:42:02.406Z,7760
2017-10-14T12:43:03.230Z,8712
2017-10-14T12:44:04.030Z,8576
2017-10-14T12:45:04.780Z,7132
2017-10-14T12:46:05.571Z,6564
2017-10-14T12:47:06.306Z,7456
2017-10-14T12:48:07.070Z,5860
2017-10-14T12:49:07.766Z,5840
2017-10-14T12:50:08.509Z,5344
2017-10-14T12:51:09.356Z,5448
2017-10-14T12:52:10.152Z,5172
2017-10-14T12:53:11.015Z,5096
2017-10-14T12:54:11.733Z,4884
2017-10-14T12:55:12.573Z,5072
2017-10-14T12:56:14.169Z,5200
2017-10-14T12:57:14.905Z,4988
2017-10-14T12:58:15.662Z,5436
2017-10-14T12:59:16.413Z,4924
2017-10-14T13:00:17.196Z,5240
2017-10-14T13:01:17.996Z,5268
2017-10-14T13:02:18.735Z,5280
2017-10-14T13:03:19.482Z,5140
2017-10-14T13:04:20.284Z,5332
2017-10-14T13:05:21.121Z,4956
2017-10-14T13:06:22.238Z,5016
2017-10-14T13:07:23.018Z,5168
2017-10-14T13:08:23.826Z,4980
2017-10-14T13:09:24.575Z,4896
2017-10-14T13:10:25.365Z,5020
2017-10-14T13:11:26.043Z,5248
2017-10-14T13:12:26.777Z,5008
2017-10-14T13:13:27.518Z,4860
2017-10-14T13:14:28.348Z,4948
2017-10-14T13:15:29.140Z,5200
2017-10-14T13:16:30.231Z,4760
2017-10-14T13:17:31.013Z,4668
2017-10-14T13:18:31.726Z,4660
2017-10-14T13:19:32.471Z,4712
2017-10-14T13:20:33.210Z,4824
2017-10-14T13:21:33.997Z,4588
2017-10-14T13:22:34.738Z,4540
2017-10-14T13:23:35.537Z,4592
2017-10-14T13:24:36.296Z,5172
2017-10-14T13:25:37.084Z,4736
2017-10-14T13:26:38.256Z,5000
2017-10-14T13:27:38.932Z,4736
2017-10-14T13:28:39.717Z,4608
2017-10-14T13:29:40.446Z,4940
2017-10-14T13:30:41.186Z,4596
2017-10-14T13:31:42.329Z,4568
2017-10-14T13:32:43.075Z,4556
2017-10-14T13:33:43.853Z,4548
2017-10-14T13:34:44.588Z,4492
2017-10-14T13:35:45.400Z,4572
2017-10-14T13:36:46.192Z,4652
2017-10-14T13:37:46.967Z,4648
2017-10-14T13:38:47.733Z,4800
2017-10-14T13:39:48.549Z,4692
2017-10-14T13:40:49.303Z,4668
2017-10-14T13:41:50.153Z,4956
2017-10-14T13:42:50.957Z,5044
2017-10-14T13:43:51.694Z,6192
2017-10-14T13:44:52.438Z,6376
2017-10-14T13:45:53.176Z,6672
2017-10-14T13:46:54.264Z,7928
2017-10-14T13:47:55.093Z,7144
2017-10-14T13:48:55.823Z,6368
2017-10-14T13:49:56.530Z,8592
2017-10-14T13:50:57.333Z,6500
2017-10-14T13:51:58.420Z,5616
2017-10-14T13:52:59.156Z,5424
2017-10-14T13:53:59.939Z,5184
2017-10-14T13:55:00.673Z,5148